createdAt,value
2018-05-10T00:01:55.441Z,14.40
2018-05-10T00:04:22.886Z,10.67
2018-05-10T00:06:50.306Z,7.10
2018-05-10T00:09:17.763Z,10.07
2018-05-10T00:11:45.186Z,11.53
2018-05-10T00:14:12.597Z,9.20
2018-05-10T00:16:40.030Z,7.63
2018-05-10T00:19:07.441Z,8.07
2018-05-10T00:21:34.881Z,9.33
2018-05-10T00:24:03.237Z,7.33
2018-05-10T00:26:30.683Z,7.93
2018-05-10T00:28:58.093Z,11.10
2018-05-10T00:31:25.533Z,6.90
2018-05-10T00:33:52.958Z,16.93
2018-05-10T00:36:20.401Z,10.67
2018-05-10T00:38:47.818Z,11.50
2018-05-10T00:41:15.255Z,9.53
2018-05-10T00:43:42.679Z,12.03
2018-05-10T00:46:10.118Z,9.50
2018-05-10T00:48:37.533Z,10.27
2018-05-10T00:51:04.956Z,7.63
2018-05-10T00:53:32.378Z,7.83
2018-05-10T00:55:59.799Z,11.00
2018-05-10T00:58:27.241Z,10.03
2018-05-10T01:00:54.655Z,10.50
2018-05-10T01:03:22.090Z,12.13
2018-05-10T01:05:49.507Z,10.27
2018-05-10T01:08:16.949Z,10.43
2018-05-10T01:10:44.357Z,9.80
2018-05-10T01:13:11.847Z,8.93
2018-05-10T01:15:39.213Z,9.70
2018-05-10T01:18:06.655Z,12.53
2018-05-10T01:20:34.073Z,12.10
2018-05-10T01:23:01.521Z,12.20
2018-05-10T01:25:28.938Z,8.37
2018-05-10T01:27:57.346Z,7.83
2018-05-10T01:30:24.757Z,13.77
2018-05-10T01:32:52.194Z,8.63
2018-05-10T01:35:31.236Z,10.03
2018-05-10T01:37:58.669Z,8.47
2018-05-10T01:40:26.090Z,10.87
2018-05-10T01:42:53.538Z,12.50
2018-05-10T01:45:20.950Z,9.13
2018-05-10T01:47:48.367Z,10.03
2018-05-10T01:50:15.815Z,11.50
2018-05-10T01:52:45.142Z,13.20
2018-05-10T01:55:12.586Z,10.37
2018-05-10T01:57:39.997Z,13.80
2018-05-10T02:00:08.406Z,13.33
2018-05-10T02:02:36.760Z,12.67
2018-05-10T02:05:04.194Z,8.30
2018-05-10T02:07:31.616Z,14.40
2018-05-10T02:09:59.061Z,19.40
2018-05-10T02:12:26.478Z,11.33
2018-05-10T02:14:54.895Z,14.97
2018-05-10T02:17:22.301Z,17.37
2018-05-10T02:19:49.746Z,14.83
2018-05-10T02:22:17.158Z,7.97
2018-05-10T02:24:44.592Z,13.77
2018-05-10T02:27:12.010Z,15.70
2018-05-10T02:29:39.498Z,12.10
2018-05-10T02:32:06.880Z,13.00
2018-05-10T02:34:34.345Z,14.63
2018-05-10T02:37:01.761Z,10.77
2018-05-10T02:39:29.186Z,14.07
2018-05-10T02:41:56.637Z,10.10
2018-05-10T02:44:24.050Z,11.10
2018-05-10T02:46:51.482Z,8.60
2018-05-10T02:49:18.910Z,13.13
2018-05-10T02:51:46.347Z,9.13
2018-05-10T02:54:14.658Z,13.83
2018-05-10T02:56:43.002Z,9.40
2018-05-10T02:59:10.454Z,9.90
2018-05-10T03:01:39.861Z,12.40
2018-05-10T03:04:07.285Z,9.80
2018-05-10T03:06:34.725Z,10.03
2018-05-10T03:09:02.174Z,13.60
2018-05-10T03:11:29.618Z,9.30
2018-05-10T03:13:57.040Z,9.73
2018-05-10T03:16:25.418Z,17.17
2018-05-10T03:18:52.834Z,10.80
2018-05-10T03:21:20.277Z,11.40
2018-05-10T03:23:49.693Z,15.43
2018-05-10T03:26:17.141Z,12.53
2018-05-10T03:28:47.689Z,11.33
2018-05-10T03:31:15.158Z,17.43
2018-05-10T03:33:45.754Z,10.70
2018-05-10T03:36:13.170Z,9.13
2018-05-10T03:38:40.622Z,9.27
2018-05-10T03:41:08.036Z,12.60
2018-05-10T03:43:37.386Z,12.10
2018-05-10T03:46:05.717Z,10.70
2018-05-10T03:48:33.160Z,10.90
2018-05-10T03:51:01.473Z,10.10
2018-05-10T03:53:30.801Z,8.70
2018-05-10T03:55:58.215Z,17.57
2018-05-10T03:58:25.650Z,7.67
2018-05-10T04:00:53.066Z,12.80
2018-05-10T04:06:28.050Z,14.73
2018-05-10T04:09:07.174Z,9.97
2018-05-10T04:11:34.578Z,8.37
2018-05-10T04:14:02.025Z,11.27
2018-05-10T04:16:29.457Z,11.03
2018-05-10T04:18:56.905Z,11.00
2018-05-10T04:21:24.310Z,16.47
2018-05-10T04:23:51.745Z,12.33
2018-05-10T04:26:19.177Z,12.80
2018-05-10T04:28:46.593Z,11.50
2018-05-10T04:31:14.034Z,10.10
2018-05-10T04:33:41.446Z,9.17
2018-05-10T04:36:08.897Z,11.10
2018-05-10T04:38:36.314Z,10.93
2018-05-10T04:41:03.749Z,13.30
2018-05-10T04:43:31.187Z,7.57
2018-05-10T04:45:58.962Z,10.00
2018-05-10T04:48:26.381Z,7.77
2018-05-10T04:50:53.827Z,10.93
2018-05-10T04:53:22.241Z,9.20
2018-05-10T04:55:49.679Z,8.57
2018-05-10T04:58:17.091Z,7.67
2018-05-10T05:00:44.527Z,11.00
2018-05-10T05:03:11.952Z,13.53
2018-05-10T05:05:39.406Z,14.53
2018-05-10T05:08:06.815Z,12.00
2018-05-10T05:10:34.241Z,10.20
2018-05-10T05:13:02.633Z,8.63
2018-05-10T05:15:30.067Z,10.07
2018-05-10T05:17:57.506Z,11.13
2018-05-10T05:20:25.985Z,11.20
2018-05-10T05:22:53.345Z,7.57
2018-05-10T05:25:20.757Z,12.30
2018-05-10T05:27:48.194Z,10.40
2018-05-10T05:30:15.609Z,14.77
2018-05-10T05:32:43.106Z,10.90
2018-05-10T05:35:10.488Z,15.43
2018-05-10T05:37:37.930Z,13.20
2018-05-10T05:40:05.359Z,15.93
2018-05-10T05:42:32.810Z,10.80
2018-05-10T05:45:00.229Z,17.40
2018-05-10T05:47:27.674Z,13.37
2018-05-10T05:49:56.094Z,7.10
2018-05-10T05:52:23.541Z,8.40
2018-05-10T05:54:50.963Z,9.60
2018-05-10T05:57:18.490Z,10.37
2018-05-10T05:59:45.898Z,13.90
2018-05-10T06:02:13.310Z,8.73
2018-05-10T06:04:40.757Z,11.50
2018-05-10T06:07:08.177Z,9.73
2018-05-10T06:09:35.610Z,8.70
2018-05-10T06:12:03.023Z,7.70
2018-05-10T06:14:30.461Z,10.77
2018-05-10T06:16:58.837Z,11.30
2018-05-10T06:19:26.285Z,12.20
2018-05-10T06:21:53.701Z,8.50
2018-05-10T06:24:21.142Z,8.00
2018-05-10T06:26:48.562Z,8.60
2018-05-10T06:29:16.008Z,11.83
2018-05-10T06:31:43.428Z,11.90
2018-05-10T06:34:11.799Z,8.03
2018-05-10T06:36:39.206Z,10.57
2018-05-10T06:39:06.662Z,8.60
2018-05-10T06:41:34.094Z,10.40
2018-05-10T06:44:01.499Z,8.70
2018-05-10T06:46:28.938Z,8.03
2018-05-10T06:48:56.367Z,11.90
2018-05-10T06:51:23.807Z,10.07
2018-05-10T06:53:51.232Z,9.33
2018-05-10T06:56:19.622Z,13.00
2018-05-10T06:58:50.499Z,11.07
2018-05-10T07:01:17.942Z,14.47
2018-05-10T07:03:45.367Z,10.40
2018-05-10T07:06:12.811Z,11.70
2018-05-10T07:08:40.218Z,9.17
2018-05-10T07:11:08.657Z,9.13
2018-05-10T07:13:37.014Z,14.53
2018-05-10T07:16:05.346Z,13.03
2018-05-10T07:18:32.757Z,13.10
2018-05-10T07:21:00.207Z,9.03
2018-05-10T07:23:27.632Z,11.70
2018-05-10T07:25:55.107Z,14.40
2018-05-10T07:28:22.518Z,14.23
2018-05-10T07:30:49.934Z,16.03
2018-05-10T07:33:17.390Z,17.23
2018-05-10T07:35:44.812Z,14.07
2018-05-10T07:38:12.261Z,11.57
2018-05-10T07:40:39.696Z,11.70
2018-05-10T07:43:08.149Z,11.70
2018-05-10T07:45:35.561Z,10.90
2018-05-10T07:48:03.025Z,13.60
2018-05-10T07:50:31.410Z,11.40
2018-05-10T07:52:58.858Z,12.07
2018-05-10T07:55:26.283Z,12.20
2018-05-10T07:57:55.662Z,14.43
2018-05-10T08:00:24.026Z,19.77
2018-05-10T08:02:51.475Z,14.73
2018-05-10T08:05:18.893Z,14.97
2018-05-10T08:07:46.359Z,11.00
2018-05-10T08:10:14.798Z,13.77
2018-05-10T08:12:42.184Z,11.40
2018-05-10T08:15:10.625Z,17.47
2018-05-10T08:17:38.042Z,16.27
2018-05-10T08:20:05.488Z,17.83
2018-05-10T08:22:33.911Z,16.53
2018-05-10T08:25:02.290Z,23.27
2018-05-10T08:27:52.429Z,10.50
2018-05-10T08:30:20.947Z,9.30
2018-05-10T08:32:49.313Z,11.03
2018-05-10T08:35:16.755Z,13.37
2018-05-10T08:37:44.182Z,20.70
2018-05-10T08:40:11.617Z,15.37
2018-05-10T08:42:39.042Z,11.67
2018-05-10T08:45:06.508Z,14.13
2018-05-10T08:47:33.915Z,17.63
2018-05-10T08:50:01.358Z,10.77
2018-05-10T08:52:28.770Z,14.90
2018-05-10T08:54:56.212Z,9.27
2018-05-10T08:57:23.633Z,17.87
2018-05-10T08:59:51.093Z,9.97
2018-05-10T09:02:18.500Z,11.70
2018-05-10T09:04:45.918Z,15.10
2018-05-10T09:07:13.358Z,18.33
2018-05-10T09:09:40.774Z,9.70
2018-05-10T09:12:08.223Z,11.43
2018-05-10T09:14:35.637Z,12.90
2018-05-10T09:17:03.097Z,14.13
2018-05-10T09:19:30.517Z,12.90
2018-05-10T09:21:57.961Z,11.70
2018-05-10T09:24:25.382Z,11.20
2018-05-10T09:26:52.826Z,18.30
2018-05-10T09:29:20.242Z,12.30
2018-05-10T09:31:47.686Z,8.90
2018-05-10T09:34:15.105Z,17.63
2018-05-10T09:36:42.550Z,10.80
2018-05-10T09:39:10.057Z,17.33
2018-05-10T09:41:37.422Z,13.67
2018-05-10T09:44:04.855Z,14.30
2018-05-10T09:46:32.275Z,9.83
2018-05-10T09:48:59.718Z,12.47
2018-05-10T09:51:27.171Z,17.67
2018-05-10T09:53:54.602Z,13.20
2018-05-10T09:56:22.958Z,13.60
2018-05-10T09:58:52.464Z,15.33
2018-05-10T10:01:33.882Z,11.77
2018-05-10T10:04:01.446Z,10.00
2018-05-10T10:06:28.861Z,16.10
2018-05-10T10:08:57.249Z,14.87
2018-05-10T10:11:26.631Z,16.00
2018-05-10T10:13:54.078Z,28.67
2018-05-10T10:16:21.502Z,15.33
2018-05-10T10:18:48.961Z,13.43
2018-05-10T10:21:16.374Z,11.87
2018-05-10T10:23:43.822Z,13.97
2018-05-10T10:26:12.208Z,15.57
2018-05-10T10:28:39.649Z,16.77
2018-05-10T10:31:07.073Z,11.40
2018-05-10T10:33:34.532Z,13.20
2018-05-10T10:36:01.942Z,15.63
2018-05-10T10:38:29.395Z,13.83
2018-05-10T10:40:56.822Z,10.60
2018-05-10T10:43:24.230Z,12.53
2018-05-10T10:45:51.677Z,21.83
2018-05-10T10:48:19.106Z,9.63
2018-05-10T10:50:46.564Z,14.43
2018-05-10T10:53:14.883Z,13.53
2018-05-10T10:55:42.337Z,11.80
2018-05-10T10:58:10.762Z,11.00
2018-05-10T11:00:38.215Z,17.27
2018-05-10T11:03:06.598Z,11.70
2018-05-10T11:05:36.035Z,14.37
2018-05-10T11:08:03.458Z,10.40
2018-05-10T11:10:30.906Z,18.17
2018-05-10T11:12:58.322Z,12.47
2018-05-10T11:15:25.774Z,12.30
2018-05-10T11:17:53.198Z,14.40
2018-05-10T11:20:20.645Z,17.17
2018-05-10T11:22:48.070Z,12.93
2018-05-10T11:25:15.485Z,17.70
2018-05-10T11:27:45.691Z,13.63
2018-05-10T11:30:13.103Z,15.37
2018-05-10T11:32:41.526Z,12.53
2018-05-10T11:35:08.953Z,9.70
2018-05-10T11:37:36.394Z,12.43
2018-05-10T11:40:03.805Z,14.00
2018-05-10T11:42:31.249Z,11.27
2018-05-10T11:44:58.883Z,12.53
2018-05-10T11:47:26.337Z,10.77
2018-05-10T11:49:55.671Z,17.17
2018-05-10T11:52:23.555Z,12.63
2018-05-10T11:54:50.989Z,9.80
2018-05-10T11:57:18.449Z,14.87
2018-05-10T11:59:45.861Z,18.80
2018-05-10T12:02:13.310Z,14.93
2018-05-10T12:04:40.730Z,19.07
2018-05-10T12:07:09.114Z,13.07
2018-05-10T12:09:36.532Z,17.83
2018-05-10T12:12:03.981Z,14.63
2018-05-10T12:14:33.426Z,15.30
2018-05-10T12:17:00.856Z,21.80
2018-05-10T12:19:29.202Z,19.67
2018-05-10T12:21:56.627Z,24.30
2018-05-10T12:24:24.090Z,24.43
2018-05-10T12:26:51.506Z,24.07
2018-05-10T12:29:18.949Z,12.70
2018-05-10T12:31:46.372Z,19.97
2018-05-10T12:34:13.812Z,20.40
2018-05-10T12:36:41.246Z,16.67
2018-05-10T12:39:09.626Z,21.60
2018-05-10T12:41:37.089Z,17.97
2018-05-10T12:44:05.462Z,26.30
2018-05-10T12:46:32.965Z,25.57
2018-05-10T12:49:00.418Z,25.83
2018-05-10T12:51:27.833Z,18.30
2018-05-10T12:53:55.295Z,20.33
2018-05-10T12:56:22.800Z,22.13
2018-05-10T12:58:50.187Z,25.50
2018-05-10T13:01:17.609Z,23.40
2018-05-10T13:03:45.066Z,20.03
2018-05-10T13:06:12.490Z,27.37
2018-05-10T13:08:39.911Z,24.30
2018-05-10T13:11:09.334Z,22.70
2018-05-10T13:13:36.761Z,18.07
2018-05-10T13:16:04.237Z,23.67
2018-05-10T13:18:32.539Z,17.87
2018-05-10T13:20:59.982Z,17.20
2018-05-10T13:23:27.405Z,22.33
2018-05-10T13:25:54.854Z,15.03
2018-05-10T13:28:22.278Z,13.27
2018-05-10T13:30:49.736Z,19.03
2018-05-10T13:33:18.142Z,28.53
2018-05-10T13:35:45.584Z,47.13
2018-05-10T13:38:13.010Z,44.90
2018-05-10T13:40:40.463Z,50.90
2018-05-10T13:43:07.881Z,53.80
2018-05-10T13:45:35.334Z,45.10
2018-05-10T13:48:02.759Z,48.83
2018-05-10T13:50:30.211Z,41.00
2018-05-10T13:52:57.785Z,49.20
2018-05-10T13:55:25.099Z,48.50
2018-05-10T13:57:52.527Z,37.67
2018-05-10T14:00:19.957Z,30.90
2018-05-10T14:02:48.391Z,34.73
2018-05-10T14:05:15.806Z,31.00
2018-05-10T14:07:43.258Z,36.77
2018-05-10T14:10:10.694Z,39.50
2018-05-10T14:12:38.150Z,23.80
2018-05-10T14:15:05.591Z,20.17
2018-05-10T14:17:33.036Z,17.57
2018-05-10T14:20:00.461Z,18.50
2018-05-10T14:22:27.910Z,20.43
2018-05-10T14:24:55.349Z,16.17
2018-05-10T14:27:22.790Z,20.93
2018-05-10T14:29:50.211Z,12.60
2018-05-10T14:32:17.696Z,18.20
2018-05-10T14:34:45.090Z,23.00
2018-05-10T14:37:12.547Z,14.70
2018-05-10T14:39:40.919Z,21.80
2018-05-10T14:42:08.352Z,14.00
2018-05-10T14:44:35.810Z,16.10
2018-05-10T14:47:03.230Z,16.30
2018-05-10T14:49:30.679Z,17.37
2018-05-10T14:51:58.098Z,18.40
2018-05-10T14:54:26.509Z,18.83
2018-05-10T14:56:53.942Z,23.57
2018-05-10T14:59:21.398Z,29.30
2018-05-10T15:01:48.822Z,38.97
2018-05-10T15:04:16.277Z,39.27
2018-05-10T15:06:43.691Z,42.50
2018-05-10T15:09:11.146Z,47.27
2018-05-10T15:11:38.585Z,44.17
2018-05-10T15:14:06.030Z,47.77
2018-05-10T15:16:34.421Z,52.10
2018-05-10T15:19:01.869Z,53.83
2018-05-10T15:21:29.295Z,61.40
2018-05-10T15:23:56.752Z,67.53
2018-05-10T15:26:24.199Z,79.13
2018-05-10T15:28:51.622Z,72.80
2018-05-10T15:31:19.070Z,80.37
2018-05-10T15:33:47.430Z,75.33
2018-05-10T15:36:14.878Z,81.03
2018-05-10T15:38:42.347Z,81.97
2018-05-10T15:41:09.791Z,92.93
2018-05-10T15:43:37.222Z,89.93
2018-05-10T15:46:05.573Z,79.20
2018-05-10T15:48:32.990Z,88.03
2018-05-10T15:51:00.444Z,89.43
2018-05-10T15:53:27.871Z,72.63
2018-05-10T15:55:55.318Z,86.83
2018-05-10T15:58:22.743Z,88.93
2018-05-10T16:00:50.192Z,99.17
2018-05-10T16:03:17.613Z,85.53
2018-05-10T16:05:45.041Z,89.93
2018-05-10T16:08:13.491Z,86.17
2018-05-10T16:10:40.907Z,98.87
2018-05-10T16:13:09.317Z,87.13
2018-05-10T16:15:36.770Z,84.93
2018-05-10T16:18:04.821Z,77.17
2018-05-10T16:20:32.265Z,76.90
2018-05-10T16:22:59.714Z,79.57
2018-05-10T16:25:27.131Z,78.97
2018-05-10T16:27:54.573Z,76.60
2018-05-10T16:30:22.014Z,78.10
2018-05-10T16:32:50.415Z,74.50
2018-05-10T16:35:17.825Z,76.23
2018-05-10T16:37:47.261Z,77.50
2018-05-10T16:40:15.612Z,86.17
2018-05-10T16:42:43.070Z,73.63
2018-05-10T16:45:11.289Z,62.70
2018-05-10T16:47:38.726Z,62.40
2018-05-10T16:50:06.141Z,54.27
2018-05-10T16:52:33.590Z,65.80
2018-05-10T16:55:02.000Z,55.60
2018-05-10T16:57:29.463Z,54.83
2018-05-10T16:59:57.306Z,55.13
2018-05-10T17:02:25.098Z,47.13
2018-05-10T17:04:53.483Z,43.50
2018-05-10T17:07:20.911Z,52.13
2018-05-10T17:09:48.358Z,41.77
2018-05-10T17:12:15.777Z,37.73
2018-05-10T17:14:43.223Z,43.80
2018-05-10T17:17:10.661Z,48.80
2018-05-10T17:19:38.854Z,47.50
2018-05-10T17:22:06.286Z,50.90
2018-05-10T17:24:33.736Z,42.20
2018-05-10T17:27:01.156Z,37.20
2018-05-10T17:29:29.178Z,44.43
2018-05-10T17:31:56.606Z,48.63
2018-05-10T17:34:25.022Z,43.83
2018-05-10T17:36:52.450Z,37.03
2018-05-10T17:39:19.894Z,39.00
2018-05-10T17:41:47.316Z,35.87
2018-05-10T17:44:14.763Z,46.00
2018-05-10T17:46:42.226Z,38.97
2018-05-10T17:49:09.649Z,43.60
2018-05-10T17:51:37.102Z,39.43
2018-05-10T17:54:04.529Z,36.17
2018-05-10T17:56:31.986Z,38.17
2018-05-10T17:58:59.413Z,29.93
2018-05-10T18:01:26.853Z,40.37
2018-05-10T18:03:54.271Z,37.50
2018-05-10T18:06:21.732Z,35.40
2018-05-10T18:08:49.186Z,26.60
2018-05-10T18:11:17.564Z,27.53
2018-05-10T18:13:45.066Z,30.40
2018-05-10T18:16:14.475Z,26.53
2018-05-10T18:18:45.181Z,21.43
2018-05-10T18:21:12.636Z,18.23
2018-05-10T18:23:40.999Z,17.03
2018-05-10T18:26:09.401Z,19.17
2018-05-10T18:28:36.854Z,17.70
2018-05-10T18:31:04.291Z,17.33
2018-05-10T18:33:31.746Z,17.73
2018-05-10T18:36:04.114Z,17.83
2018-05-10T18:38:32.456Z,15.53
2018-05-10T18:40:59.873Z,12.50
2018-05-10T18:43:27.317Z,12.80
2018-05-10T18:45:54.738Z,17.90
2018-05-10T18:48:22.198Z,12.23
2018-05-10T18:50:50.574Z,11.63
2018-05-10T18:53:18.026Z,11.40
2018-05-10T18:55:45.465Z,11.20
2018-05-10T18:58:12.917Z,13.43
2018-05-10T19:00:40.341Z,23.33
2018-05-10T19:03:09.709Z,23.87
2018-05-10T19:05:37.145Z,8.27
2018-05-10T19:08:07.711Z,12.70
2018-05-10T19:10:35.163Z,11.63
2018-05-10T19:13:02.574Z,14.30
2018-05-10T19:15:30.051Z,12.57
2018-05-10T19:17:57.447Z,12.07
2018-05-10T19:20:24.902Z,19.57
2018-05-10T19:22:52.307Z,16.57
2018-05-10T19:25:19.755Z,13.00
2018-05-10T19:27:47.177Z,16.83
2018-05-10T19:30:14.640Z,12.27
2018-05-10T19:32:42.071Z,11.43
2018-05-10T19:35:09.491Z,11.30
2018-05-10T19:37:36.943Z,10.40
2018-05-10T19:40:04.355Z,9.97
2018-05-10T19:42:31.791Z,7.80
2018-05-10T19:44:59.206Z,9.50
2018-05-10T19:47:26.666Z,11.03
2018-05-10T19:49:54.086Z,9.97
2018-05-10T19:52:22.458Z,8.83
2018-05-10T19:54:51.822Z,11.47
2018-05-10T19:57:19.265Z,11.20
2018-05-10T19:59:50.001Z,13.13
2018-05-10T20:02:17.465Z,13.83
2018-05-10T20:04:44.882Z,12.53
2018-05-10T20:07:12.334Z,15.77
2018-05-10T20:09:39.741Z,7.30
2018-05-10T20:12:07.193Z,10.93
2018-05-10T20:14:34.615Z,13.83
2018-05-10T20:17:02.049Z,12.90
2018-05-10T20:19:29.475Z,9.47
2018-05-10T20:21:56.898Z,11.40
2018-05-10T20:24:24.349Z,9.37
2018-05-10T20:26:51.778Z,27.30
2018-05-10T20:29:19.228Z,11.67
2018-05-10T20:31:46.667Z,12.20
2018-05-10T20:34:14.112Z,13.60
2018-05-10T20:36:42.439Z,10.53
2018-05-10T20:39:09.886Z,13.70
2018-05-10T20:41:37.401Z,8.77
2018-05-10T20:44:04.789Z,17.77
2018-05-10T20:46:32.214Z,16.10
2018-05-10T20:48:59.670Z,13.73
2018-05-10T20:51:27.105Z,16.27
2018-05-10T20:53:54.548Z,17.87
2018-05-10T20:56:21.954Z,9.97
2018-05-10T20:58:49.415Z,14.63
2018-05-10T21:01:16.846Z,15.93
2018-05-10T21:03:44.420Z,9.87
2018-05-10T21:06:11.698Z,9.10
2018-05-10T21:08:39.118Z,11.30
2018-05-10T21:11:06.570Z,14.73
2018-05-10T21:13:33.993Z,15.80
2018-05-10T21:16:03.364Z,20.77
2018-05-10T21:18:30.786Z,12.87
2018-05-10T21:20:58.246Z,9.07
2018-05-10T21:23:26.632Z,16.60
2018-05-10T21:25:54.404Z,8.50
2018-05-10T21:28:21.832Z,16.03
2018-05-10T21:30:49.274Z,16.23
2018-05-10T21:33:18.599Z,11.57
2018-05-10T21:35:46.044Z,12.23
2018-05-10T21:38:13.458Z,13.50
2018-05-10T21:40:40.916Z,11.27
2018-05-10T21:43:08.334Z,9.23
2018-05-10T21:45:36.691Z,10.90
2018-05-10T21:48:04.590Z,9.07
2018-05-10T21:50:32.056Z,9.77
2018-05-10T21:53:00.419Z,13.57
2018-05-10T21:55:29.835Z,11.30
2018-05-10T21:57:57.286Z,9.80
2018-05-10T22:00:25.651Z,10.63
2018-05-10T22:02:54.056Z,10.63
2018-05-10T22:05:21.473Z,14.03
2018-05-10T22:07:49.882Z,11.10
2018-05-10T22:10:18.214Z,9.63
2018-05-10T22:12:45.666Z,12.40
2018-05-10T22:15:13.082Z,8.20
2018-05-10T22:17:40.525Z,13.43
2018-05-10T22:20:07.946Z,10.60
2018-05-10T22:22:35.412Z,6.70
2018-05-10T22:25:02.832Z,9.57
2018-05-10T22:27:31.221Z,14.13
2018-05-10T22:29:58.673Z,12.07
2018-05-10T22:32:26.106Z,9.07
2018-05-10T22:34:53.523Z,12.70
2018-05-10T22:37:21.130Z,9.43
2018-05-10T22:39:48.561Z,6.13
2018-05-10T22:42:16.909Z,10.80
2018-05-10T22:44:44.358Z,10.43
2018-05-10T22:47:11.774Z,11.97
2018-05-10T22:49:39.237Z,12.60
2018-05-10T22:52:06.650Z,15.90
2018-05-10T22:54:34.092Z,10.60
2018-05-10T22:57:01.526Z,10.30
2018-05-10T22:59:29.716Z,14.30
2018-05-10T23:01:57.126Z,7.53
2018-05-10T23:04:24.566Z,6.87
2018-05-10T23:06:52.920Z,14.47
2018-05-10T23:09:20.372Z,9.60
2018-05-10T23:11:47.781Z,9.77
2018-05-10T23:14:15.269Z,9.83
2018-05-10T23:16:42.681Z,9.87
2018-05-10T23:19:10.138Z,8.70
2018-05-10T23:21:37.556Z,8.80
2018-05-10T23:24:05.769Z,10.13
2018-05-10T23:26:33.223Z,14.93
2018-05-10T23:29:00.641Z,8.03
2018-05-10T23:31:29.046Z,14.90
2018-05-10T23:33:56.478Z,14.77
2018-05-10T23:36:23.914Z,14.23
2018-05-10T23:38:51.330Z,9.47
2018-05-10T23:41:18.786Z,10.37
2018-05-10T23:43:46.206Z,8.97
2018-05-10T23:46:13.654Z,13.67
2018-05-10T23:48:41.062Z,7.93
2018-05-10T23:51:08.508Z,13.07
2018-05-10T23:53:35.947Z,12.60
2018-05-10T23:56:03.381Z,13.63
2018-05-10T23:58:30.804Z,9.50
